Disclaimer

Please do not use the information listed here in-flight or in-navigation, as they are not provided to us by the airports but are provided by volunteers, so they might be outdated.

Search


Regions


Airport information page

Radio informations:
SKIATHOS TWR - 126.05 MHz
SKIATHOS APP - 126.05 MHz
SKIATHOS RDO - 5637 MHz

Airport informations:
Latitude: 39° 10' 37.56" N
Longitude: 023° 30' 13.23" E
Elevation: 54 feet - 16 meters
Operating hours: Remarks
Operating agency: Civil government, landing fees and diplomatic clearance may be required
Timezone: UTC+2(+3DT) - Last Sunday in March to last Sunday in October
Fuel: N/A

Runway information:
02/20 - 5341 x 98 feet< - >1628 x 30 meters

Recent METARs:
LGSK 211450Z 20005KT 9999 FEW020 19/14 Q1009
LGSK 211450Z 20005KT 9999 FEW020 19/14 Q1009
LGSK 211450Z 20005KT 9999 FEW020 19/14 Q1009

Airport on the map: